sensor_id;sensor_type;location;lat;lon;timestamp;P1;durP1;ratioP1;P2;durP2;ratioP2
5752;SDS011;2901;42.140;24.760;2022-08-21T00:01:24;13.07;;;6.07;;
5752;SDS011;2901;42.140;24.760;2022-08-21T00:03:51;10.30;;;7.00;;
5752;SDS011;2901;42.140;24.760;2022-08-21T00:06:17;9.13;;;6.35;;
5752;SDS011;2901;42.140;24.760;2022-08-21T00:08:43;10.02;;;5.85;;
5752;SDS011;2901;42.140;24.760;2022-08-21T00:11:09;9.55;;;5.95;;
5752;SDS011;2901;42.140;24.760;2022-08-21T00:13:34;10.80;;;5.80;;
5752;SDS011;2901;42.140;24.760;2022-08-21T00:16:01;7.82;;;5.95;;
5752;SDS011;2901;42.140;24.760;2022-08-21T00:18:27;8.98;;;5.93;;
5752;SDS011;2901;42.140;24.760;2022-08-21T00:20:53;8.05;;;5.82;;
5752;SDS011;2901;42.140;24.760;2022-08-21T00:23:18;11.23;;;5.63;;
5752;SDS011;2901;42.140;24.760;2022-08-21T00:25:44;10.65;;;6.15;;
5752;SDS011;2901;42.140;24.760;2022-08-21T00:28:10;10.05;;;6.07;;
5752;SDS011;2901;42.140;24.760;2022-08-21T00:30:36;12.88;;;6.25;;
5752;SDS011;2901;42.140;24.760;2022-08-21T00:33:02;5.63;;;5.03;;
5752;SDS011;2901;42.140;24.760;2022-08-21T00:35:33;9.40;;;5.25;;
5752;SDS011;2901;42.140;24.760;2022-08-21T00:38:02;8.70;;;5.70;;
5752;SDS011;2901;42.140;24.760;2022-08-21T00:40:31;8.38;;;5.68;;
5752;SDS011;2901;42.140;24.760;2022-08-21T00:43:02;7.63;;;5.80;;
5752;SDS011;2901;42.140;24.760;2022-08-21T00:45:28;8.52;;;5.63;;
5752;SDS011;2901;42.140;24.760;2022-08-21T00:47:55;12.85;;;6.38;;
5752;SDS011;2901;42.140;24.760;2022-08-21T00:50:21;8.07;;;5.55;;
5752;SDS011;2901;42.140;24.760;2022-08-21T00:52:49;8.35;;;6.40;;
5752;SDS011;2901;42.140;24.760;2022-08-21T00:55:16;8.40;;;5.10;;
5752;SDS011;2901;42.140;24.760;2022-08-21T00:57:43;7.45;;;5.18;;
5752;SDS011;2901;42.140;24.760;2022-08-21T01:00:15;5.90;;;5.40;;
5752;SDS011;2901;42.140;24.760;2022-08-21T01:02:44;6.55;;;5.32;;
5752;SDS011;2901;42.140;24.760;2022-08-21T01:05:11;7.65;;;5.13;;
5752;SDS011;2901;42.140;24.760;2022-08-21T01:07:37;8.60;;;5.90;;
5752;SDS011;2901;42.140;24.760;2022-08-21T01:10:03;10.75;;;6.10;;
5752;SDS011;2901;42.140;24.760;2022-08-21T01:12:31;15.40;;;6.45;;
5752;SDS011;2901;42.140;24.760;2022-08-21T01:14:57;8.10;;;6.25;;
5752;SDS011;2901;42.140;24.760;2022-08-21T01:17:23;8.55;;;5.70;;
5752;SDS011;2901;42.140;24.760;2022-08-21T01:19:50;13.52;;;6.78;;
5752;SDS011;2901;42.140;24.760;2022-08-21T01:22:15;7.53;;;6.78;;
5752;SDS011;2901;42.140;24.760;2022-08-21T01:24:41;8.73;;;6.60;;
5752;SDS011;2901;42.140;24.760;2022-08-21T01:27:06;9.23;;;5.80;;
5752;SDS011;2901;42.140;24.760;2022-08-21T01:32:13;7.07;;;6.45;;
5752;SDS011;2901;42.140;24.760;2022-08-21T01:34:43;7.72;;;6.10;;
5752;SDS011;2901;42.140;24.760;2022-08-21T01:37:11;8.02;;;6.63;;
5752;SDS011;2901;42.140;24.760;2022-08-21T01:39:36;7.85;;;6.60;;
5752;SDS011;2901;42.140;24.760;2022-08-21T01:42:02;9.43;;;7.15;;
5752;SDS011;2901;42.140;24.760;2022-08-21T01:44:28;9.10;;;6.70;;
5752;SDS011;2901;42.140;24.760;2022-08-21T01:46:54;8.25;;;6.65;;
5752;SDS011;2901;42.140;24.760;2022-08-21T01:49:20;8.95;;;6.70;;
5752;SDS011;2901;42.140;24.760;2022-08-21T01:51:46;10.93;;;6.80;;
5752;SDS011;2901;42.140;24.760;2022-08-21T01:54:12;8.63;;;6.85;;
5752;SDS011;2901;42.140;24.760;2022-08-21T01:56:42;7.78;;;7.00;;
5752;SDS011;2901;42.140;24.760;2022-08-21T01:59:10;6.93;;;6.30;;
5752;SDS011;2901;42.140;24.760;2022-08-21T02:01:36;9.55;;;7.07;;
5752;SDS011;2901;42.140;24.760;2022-08-21T02:04:04;8.90;;;7.10;;
5752;SDS011;2901;42.140;24.760;2022-08-21T02:06:31;7.88;;;7.18;;
5752;SDS011;2901;42.140;24.760;2022-08-21T02:08:56;10.90;;;8.32;;
5752;SDS011;2901;42.140;24.760;2022-08-21T02:11:22;14.43;;;8.73;;
5752;SDS011;2901;42.140;24.760;2022-08-21T02:13:48;12.40;;;8.13;;
5752;SDS011;2901;42.140;24.760;2022-08-21T02:16:13;10.93;;;7.45;;
5752;SDS011;2901;42.140;24.760;2022-08-21T02:18:39;8.73;;;6.95;;
5752;SDS011;2901;42.140;24.760;2022-08-21T02:21:05;8.88;;;6.88;;
5752;SDS011;2901;42.140;24.760;2022-08-21T02:23:31;14.25;;;7.55;;
5752;SDS011;2901;42.140;24.760;2022-08-21T02:26:00;6.93;;;6.43;;
5752;SDS011;2901;42.140;24.760;2022-08-21T02:28:27;8.07;;;7.13;;
5752;SDS011;2901;42.140;24.760;2022-08-21T02:30:53;9.77;;;6.85;;
5752;SDS011;2901;42.140;24.760;2022-08-21T02:33:20;7.93;;;6.97;;
5752;SDS011;2901;42.140;24.760;2022-08-21T02:35:46;10.20;;;7.80;;
5752;SDS011;2901;42.140;24.760;2022-08-21T02:38:17;8.52;;;7.50;;
5752;SDS011;2901;42.140;24.760;2022-08-21T02:40:45;10.15;;;8.38;;
5752;SDS011;2901;42.140;24.760;2022-08-21T02:43:13;10.65;;;8.10;;
5752;SDS011;2901;42.140;24.760;2022-08-21T02:45:40;19.30;;;8.57;;
5752;SDS011;2901;42.140;24.760;2022-08-21T02:48:07;7.60;;;7.03;;
5752;SDS011;2901;42.140;24.760;2022-08-21T02:50:35;7.95;;;7.20;;
5752;SDS011;2901;42.140;24.760;2022-08-21T02:53:04;8.18;;;7.38;;
5752;SDS011;2901;42.140;24.760;2022-08-21T02:55:32;8.68;;;8.00;;
5752;SDS011;2901;42.140;24.760;2022-08-21T02:57:58;8.63;;;7.82;;
5752;SDS011;2901;42.140;24.760;2022-08-21T03:00:25;9.00;;;8.23;;
5752;SDS011;2901;42.140;24.760;2022-08-21T03:02:53;10.25;;;7.60;;
5752;SDS011;2901;42.140;24.760;2022-08-21T03:05:20;8.60;;;7.80;;
5752;SDS011;2901;42.140;24.760;2022-08-21T03:07:46;10.40;;;8.30;;
5752;SDS011;2901;42.140;24.760;2022-08-21T03:10:13;14.48;;;9.15;;
5752;SDS011;2901;42.140;24.760;2022-08-21T03:12:39;9.00;;;8.20;;
5752;SDS011;2901;42.140;24.760;2022-08-21T03:15:06;13.13;;;8.13;;
5752;SDS011;2901;42.140;24.760;2022-08-21T03:17:33;10.38;;;9.35;;
5752;SDS011;2901;42.140;24.760;2022-08-21T03:19:59;9.50;;;8.70;;
5752;SDS011;2901;42.140;24.760;2022-08-21T03:22:25;12.07;;;9.52;;
5752;SDS011;2901;42.140;24.760;2022-08-21T03:24:51;9.45;;;8.52;;
5752;SDS011;2901;42.140;24.760;2022-08-21T03:27:16;11.25;;;7.85;;
5752;SDS011;2901;42.140;24.760;2022-08-21T03:29:42;9.88;;;8.98;;
5752;SDS011;2901;42.140;24.760;2022-08-21T03:32:07;13.48;;;9.35;;
5752;SDS011;2901;42.140;24.760;2022-08-21T03:34:36;11.05;;;9.60;;
5752;SDS011;2901;42.140;24.760;2022-08-21T03:37:05;10.52;;;9.45;;
5752;SDS011;2901;42.140;24.760;2022-08-21T03:39:32;9.80;;;8.65;;
5752;SDS011;2901;42.140;24.760;2022-08-21T03:41:57;10.32;;;8.70;;
5752;SDS011;2901;42.140;24.760;2022-08-21T03:44:23;13.85;;;9.00;;
5752;SDS011;2901;42.140;24.760;2022-08-21T03:46:48;12.43;;;8.43;;
5752;SDS011;2901;42.140;24.760;2022-08-21T03:49:14;12.35;;;8.82;;
5752;SDS011;2901;42.140;24.760;2022-08-21T03:51:40;11.70;;;10.57;;
5752;SDS011;2901;42.140;24.760;2022-08-21T03:54:06;9.70;;;8.80;;
5752;SDS011;2901;42.140;24.760;2022-08-21T03:56:31;9.02;;;8.32;;
5752;SDS011;2901;42.140;24.760;2022-08-21T03:58:57;10.23;;;9.27;;
5752;SDS011;2901;42.140;24.760;2022-08-21T04:01:22;11.13;;;9.00;;
5752;SDS011;2901;42.140;24.760;2022-08-21T04:03:48;11.43;;;9.52;;
5752;SDS011;2901;42.140;24.760;2022-08-21T04:06:13;10.35;;;9.07;;
5752;SDS011;2901;42.140;24.760;2022-08-21T04:08:39;11.32;;;9.98;;
5752;SDS011;2901;42.140;24.760;2022-08-21T04:11:07;14.55;;;10.15;;
5752;SDS011;2901;42.140;24.760;2022-08-21T04:13:35;13.85;;;9.25;;
5752;SDS011;2901;42.140;24.760;2022-08-21T04:16:01;10.50;;;9.40;;
5752;SDS011;2901;42.140;24.760;2022-08-21T04:18:26;10.88;;;9.40;;
5752;SDS011;2901;42.140;24.760;2022-08-21T04:20:51;9.30;;;8.40;;
5752;SDS011;2901;42.140;24.760;2022-08-21T04:23:19;13.90;;;10.05;;
5752;SDS011;2901;42.140;24.760;2022-08-21T04:25:45;14.13;;;10.55;;
5752;SDS011;2901;42.140;24.760;2022-08-21T04:28:11;10.93;;;9.60;;
5752;SDS011;2901;42.140;24.760;2022-08-21T04:30:36;11.25;;;10.05;;
5752;SDS011;2901;42.140;24.760;2022-08-21T04:33:02;12.00;;;9.50;;
5752;SDS011;2901;42.140;24.760;2022-08-21T04:35:28;15.40;;;10.70;;
5752;SDS011;2901;42.140;24.760;2022-08-21T04:37:54;14.30;;;10.52;;
5752;SDS011;2901;42.140;24.760;2022-08-21T04:40:21;12.98;;;10.43;;
5752;SDS011;2901;42.140;24.760;2022-08-21T04:42:53;11.35;;;10.10;;
5752;SDS011;2901;42.140;24.760;2022-08-21T04:45:23;13.55;;;10.20;;
5752;SDS011;2901;42.140;24.760;2022-08-21T04:47:53;11.05;;;9.95;;
5752;SDS011;2901;42.140;24.760;2022-08-21T04:50:21;11.30;;;9.27;;
5752;SDS011;2901;42.140;24.760;2022-08-21T04:52:53;12.25;;;10.32;;
5752;SDS011;2901;42.140;24.760;2022-08-21T04:55:19;11.45;;;10.35;;
5752;SDS011;2901;42.140;24.760;2022-08-21T04:57:46;12.05;;;10.60;;
5752;SDS011;2901;42.140;24.760;2022-08-21T05:00:12;13.13;;;11.85;;
5752;SDS011;2901;42.140;24.760;2022-08-21T05:02:39;13.45;;;11.82;;
5752;SDS011;2901;42.140;24.760;2022-08-21T05:05:06;12.15;;;10.82;;
5752;SDS011;2901;42.140;24.760;2022-08-21T05:07:31;14.07;;;11.85;;
5752;SDS011;2901;42.140;24.760;2022-08-21T05:09:58;14.45;;;12.13;;
5752;SDS011;2901;42.140;24.760;2022-08-21T05:12:25;16.50;;;12.32;;
5752;SDS011;2901;42.140;24.760;2022-08-21T05:14:50;12.48;;;11.02;;
5752;SDS011;2901;42.140;24.760;2022-08-21T05:17:15;12.13;;;11.05;;
5752;SDS011;2901;42.140;24.760;2022-08-21T05:19:42;11.57;;;10.60;;
5752;SDS011;2901;42.140;24.760;2022-08-21T05:22:07;15.23;;;10.90;;
5752;SDS011;2901;42.140;24.760;2022-08-21T05:24:34;11.85;;;10.85;;
5752;SDS011;2901;42.140;24.760;2022-08-21T05:26:59;11.85;;;9.57;;
5752;SDS011;2901;42.140;24.760;2022-08-21T05:29:25;14.40;;;11.55;;
5752;SDS011;2901;42.140;24.760;2022-08-21T05:31:50;14.40;;;10.57;;
5752;SDS011;2901;42.140;24.760;2022-08-21T05:34:20;10.85;;;9.80;;
5752;SDS011;2901;42.140;24.760;2022-08-21T05:36:46;10.32;;;9.07;;
5752;SDS011;2901;42.140;24.760;2022-08-21T05:39:12;11.25;;;10.13;;
5752;SDS011;2901;42.140;24.760;2022-08-21T05:41:38;13.10;;;8.95;;
5752;SDS011;2901;42.140;24.760;2022-08-21T05:44:03;12.90;;;7.97;;
5752;SDS011;2901;42.140;24.760;2022-08-21T05:46:29;10.55;;;7.35;;
5752;SDS011;2901;42.140;24.760;2022-08-21T05:48:54;9.10;;;6.78;;
5752;SDS011;2901;42.140;24.760;2022-08-21T05:51:20;10.52;;;7.28;;
5752;SDS011;2901;42.140;24.760;2022-08-21T05:53:45;12.35;;;8.18;;
5752;SDS011;2901;42.140;24.760;2022-08-21T05:56:11;10.88;;;9.95;;
5752;SDS011;2901;42.140;24.760;2022-08-21T05:58:38;12.82;;;9.57;;
5752;SDS011;2901;42.140;24.760;2022-08-21T06:01:04;10.30;;;9.50;;
5752;SDS011;2901;42.140;24.760;2022-08-21T06:03:34;12.00;;;10.77;;
5752;SDS011;2901;42.140;24.760;2022-08-21T06:06:01;15.05;;;9.95;;
5752;SDS011;2901;42.140;24.760;2022-08-21T06:08:27;11.65;;;9.65;;
5752;SDS011;2901;42.140;24.760;2022-08-21T06:10:54;12.13;;;9.80;;
5752;SDS011;2901;42.140;24.760;2022-08-21T06:13:22;10.88;;;10.00;;
5752;SDS011;2901;42.140;24.760;2022-08-21T06:15:47;14.15;;;9.90;;
5752;SDS011;2901;42.140;24.760;2022-08-21T06:18:13;9.93;;;9.20;;
5752;SDS011;2901;42.140;24.760;2022-08-21T06:20:40;10.35;;;9.15;;
5752;SDS011;2901;42.140;24.760;2022-08-21T06:23:06;10.85;;;8.73;;
5752;SDS011;2901;42.140;24.760;2022-08-21T06:25:31;13.07;;;9.48;;
5752;SDS011;2901;42.140;24.760;2022-08-21T06:28:04;11.77;;;9.02;;
5752;SDS011;2901;42.140;24.760;2022-08-21T06:30:32;11.25;;;9.75;;
5752;SDS011;2901;42.140;24.760;2022-08-21T06:32:58;9.45;;;8.50;;
5752;SDS011;2901;42.140;24.760;2022-08-21T06:35:23;10.73;;;8.68;;
5752;SDS011;2901;42.140;24.760;2022-08-21T06:37:49;12.77;;;8.82;;
5752;SDS011;2901;42.140;24.760;2022-08-21T06:40:15;9.68;;;8.85;;
5752;SDS011;2901;42.140;24.760;2022-08-21T06:42:41;9.93;;;8.80;;
5752;SDS011;2901;42.140;24.760;2022-08-21T06:45:06;15.70;;;9.68;;
5752;SDS011;2901;42.140;24.760;2022-08-21T06:47:32;9.40;;;7.85;;
5752;SDS011;2901;42.140;24.760;2022-08-21T06:49:57;10.23;;;9.23;;
5752;SDS011;2901;42.140;24.760;2022-08-21T06:52:23;12.23;;;9.98;;
5752;SDS011;2901;42.140;24.760;2022-08-21T06:54:48;10.52;;;8.73;;
5752;SDS011;2901;42.140;24.760;2022-08-21T06:57:14;13.77;;;8.80;;
5752;SDS011;2901;42.140;24.760;2022-08-21T06:59:40;9.55;;;8.75;;
5752;SDS011;2901;42.140;24.760;2022-08-21T07:02:05;11.20;;;7.88;;
5752;SDS011;2901;42.140;24.760;2022-08-21T07:04:31;8.57;;;7.82;;
5752;SDS011;2901;42.140;24.760;2022-08-21T07:06:57;7.97;;;6.85;;
5752;SDS011;2901;42.140;24.760;2022-08-21T07:09:22;8.65;;;7.53;;
5752;SDS011;2901;42.140;24.760;2022-08-21T07:11:49;11.73;;;7.97;;
5752;SDS011;2901;42.140;24.760;2022-08-21T07:14:17;8.30;;;7.57;;
5752;SDS011;2901;42.140;24.760;2022-08-21T07:16:42;9.20;;;8.27;;
5752;SDS011;2901;42.140;24.760;2022-08-21T07:19:08;12.18;;;7.90;;
5752;SDS011;2901;42.140;24.760;2022-08-21T07:21:33;9.25;;;8.52;;
5752;SDS011;2901;42.140;24.760;2022-08-21T07:23:58;14.23;;;9.45;;
5752;SDS011;2901;42.140;24.760;2022-08-21T07:26:24;10.38;;;8.10;;
5752;SDS011;2901;42.140;24.760;2022-08-21T07:28:51;12.40;;;9.77;;
5752;SDS011;2901;42.140;24.760;2022-08-21T07:31:17;10.38;;;9.40;;
5752;SDS011;2901;42.140;24.760;2022-08-21T07:33:45;10.05;;;8.98;;
5752;SDS011;2901;42.140;24.760;2022-08-21T07:36:10;10.55;;;9.27;;
5752;SDS011;2901;42.140;24.760;2022-08-21T07:38:37;12.20;;;9.65;;
5752;SDS011;2901;42.140;24.760;2022-08-21T07:41:03;10.30;;;9.50;;
5752;SDS011;2901;42.140;24.760;2022-08-21T07:43:36;12.95;;;10.80;;
5752;SDS011;2901;42.140;24.760;2022-08-21T07:46:02;13.65;;;10.38;;
5752;SDS011;2901;42.140;24.760;2022-08-21T07:48:27;11.25;;;10.25;;
5752;SDS011;2901;42.140;24.760;2022-08-21T07:50:52;13.18;;;9.75;;
5752;SDS011;2901;42.140;24.760;2022-08-21T07:53:18;11.32;;;10.25;;
5752;SDS011;2901;42.140;24.760;2022-08-21T07:55:43;10.75;;;9.75;;
5752;SDS011;2901;42.140;24.760;2022-08-21T07:58:09;12.18;;;10.18;;
5752;SDS011;2901;42.140;24.760;2022-08-21T08:00:35;11.90;;;10.18;;
5752;SDS011;2901;42.140;24.760;2022-08-21T08:03:00;10.00;;;9.05;;
5752;SDS011;2901;42.140;24.760;2022-08-21T08:05:28;10.98;;;9.35;;
5752;SDS011;2901;42.140;24.760;2022-08-21T08:07:55;11.35;;;9.38;;
5752;SDS011;2901;42.140;24.760;2022-08-21T08:10:21;9.35;;;8.43;;
5752;SDS011;2901;42.140;24.760;2022-08-21T08:12:47;16.15;;;9.10;;
5752;SDS011;2901;42.140;24.760;2022-08-21T08:15:15;11.43;;;9.82;;
5752;SDS011;2901;42.140;24.760;2022-08-21T08:17:41;11.93;;;9.48;;
5752;SDS011;2901;42.140;24.760;2022-08-21T08:20:08;10.45;;;9.43;;
5752;SDS011;2901;42.140;24.760;2022-08-21T08:22:35;14.38;;;9.57;;
5752;SDS011;2901;42.140;24.760;2022-08-21T08:25:03;9.57;;;8.43;;
5752;SDS011;2901;42.140;24.760;2022-08-21T08:27:30;11.63;;;9.18;;
5752;SDS011;2901;42.140;24.760;2022-08-21T08:29:55;10.43;;;8.43;;
5752;SDS011;2901;42.140;24.760;2022-08-21T08:32:21;10.32;;;9.00;;
5752;SDS011;2901;42.140;24.760;2022-08-21T08:34:47;16.60;;;9.50;;
5752;SDS011;2901;42.140;24.760;2022-08-21T08:37:14;13.50;;;9.55;;
5752;SDS011;2901;42.140;24.760;2022-08-21T08:39:40;11.38;;;9.65;;
5752;SDS011;2901;42.140;24.760;2022-08-21T08:42:06;11.45;;;10.32;;
5752;SDS011;2901;42.140;24.760;2022-08-21T08:44:38;11.10;;;9.85;;
5752;SDS011;2901;42.140;24.760;2022-08-21T08:47:08;11.35;;;10.15;;
5752;SDS011;2901;42.140;24.760;2022-08-21T08:49:53;12.32;;;11.13;;
5752;SDS011;2901;42.140;24.760;2022-08-21T08:52:30;11.93;;;10.43;;
5752;SDS011;2901;42.140;24.760;2022-08-21T08:55:01;13.48;;;10.45;;
5752;SDS011;2901;42.140;24.760;2022-08-21T08:57:30;13.20;;;8.73;;
5752;SDS011;2901;42.140;24.760;2022-08-21T08:59:57;10.57;;;9.48;;
5752;SDS011;2901;42.140;24.760;2022-08-21T09:02:25;14.75;;;9.13;;
5752;SDS011;2901;42.140;24.760;2022-08-21T09:04:52;11.98;;;9.02;;
5752;SDS011;2901;42.140;24.760;2022-08-21T09:15:45;7.32;;;6.63;;
5752;SDS011;2901;42.140;24.760;2022-08-21T09:27:08;8.68;;;7.95;;
5752;SDS011;2901;42.140;24.760;2022-08-21T09:29:38;10.07;;;6.97;;
5752;SDS011;2901;42.140;24.760;2022-08-21T09:32:11;12.40;;;7.47;;
5752;SDS011;2901;42.140;24.760;2022-08-21T09:34:42;8.85;;;7.40;;
5752;SDS011;2901;42.140;24.760;2022-08-21T09:37:15;10.85;;;7.57;;
5752;SDS011;2901;42.140;24.760;2022-08-21T09:39:42;13.07;;;6.70;;
5752;SDS011;2901;42.140;24.760;2022-08-21T09:42:09;7.45;;;6.88;;
5752;SDS011;2901;42.140;24.760;2022-08-21T09:44:36;10.90;;;7.47;;
5752;SDS011;2901;42.140;24.760;2022-08-21T09:47:09;8.90;;;8.10;;
5752;SDS011;2901;42.140;24.760;2022-08-21T09:49:40;8.25;;;7.45;;
5752;SDS011;2901;42.140;24.760;2022-08-21T09:52:15;13.95;;;8.50;;
5752;SDS011;2901;42.140;24.760;2022-08-21T09:54:45;7.75;;;7.25;;
5752;SDS011;2901;42.140;24.760;2022-08-21T09:57:12;17.25;;;9.18;;
5752;SDS011;2901;42.140;24.760;2022-08-21T10:00:11;10.27;;;8.32;;
5752;SDS011;2901;42.140;24.760;2022-08-21T10:02:44;18.85;;;9.18;;
5752;SDS011;2901;42.140;24.760;2022-08-21T10:05:19;13.20;;;9.27;;
5752;SDS011;2901;42.140;24.760;2022-08-21T10:07:50;11.80;;;8.88;;
5752;SDS011;2901;42.140;24.760;2022-08-21T10:18:16;10.30;;;8.82;;
5752;SDS011;2901;42.140;24.760;2022-08-21T10:20:54;16.05;;;9.40;;
5752;SDS011;2901;42.140;24.760;2022-08-21T10:26:33;13.65;;;9.95;;
5752;SDS011;2901;42.140;24.760;2022-08-21T10:29:23;14.52;;;10.23;;
5752;SDS011;2901;42.140;24.760;2022-08-21T10:32:09;10.18;;;9.13;;
5752;SDS011;2901;42.140;24.760;2022-08-21T10:43:28;11.35;;;9.30;;
5752;SDS011;2901;42.140;24.760;2022-08-21T10:48:35;17.05;;;9.55;;
5752;SDS011;2901;42.140;24.760;2022-08-21T10:51:12;11.23;;;9.98;;
5752;SDS011;2901;42.140;24.760;2022-08-21T10:56:29;10.55;;;9.52;;
5752;SDS011;2901;42.140;24.760;2022-08-21T11:01:38;16.13;;;11.80;;
5752;SDS011;2901;42.140;24.760;2022-08-21T11:04:21;20.88;;;12.90;;
5752;SDS011;2901;42.140;24.760;2022-08-21T11:07:02;13.70;;;11.90;;
5752;SDS011;2901;42.140;24.760;2022-08-21T11:09:41;21.50;;;12.70;;
5752;SDS011;2901;42.140;24.760;2022-08-21T11:14:58;14.30;;;12.18;;
5752;SDS011;2901;42.140;24.760;2022-08-21T11:17:32;16.80;;;11.43;;
5752;SDS011;2901;42.140;24.760;2022-08-21T11:20:10;16.33;;;12.40;;
5752;SDS011;2901;42.140;24.760;2022-08-21T11:22:46;11.68;;;10.68;;
5752;SDS011;2901;42.140;24.760;2022-08-21T11:25:27;10.75;;;9.70;;
5752;SDS011;2901;42.140;24.760;2022-08-21T11:28:00;13.65;;;12.38;;
5752;SDS011;2901;42.140;24.760;2022-08-21T11:30:35;14.27;;;12.95;;
5752;SDS011;2901;42.140;24.760;2022-08-21T11:36:43;16.02;;;12.07;;
5752;SDS011;2901;42.140;24.760;2022-08-21T11:42:17;13.70;;;10.50;;
5752;SDS011;2901;42.140;24.760;2022-08-21T11:47:54;11.73;;;10.63;;
5752;SDS011;2901;42.140;24.760;2022-08-21T11:50:28;14.23;;;11.10;;
5752;SDS011;2901;42.140;24.760;2022-08-21T11:55:29;15.60;;;9.85;;
5752;SDS011;2901;42.140;24.760;2022-08-21T12:00:45;10.52;;;8.60;;
5752;SDS011;2901;42.140;24.760;2022-08-21T12:03:28;11.50;;;8.35;;
5752;SDS011;2901;42.140;24.760;2022-08-21T12:05:58;10.55;;;9.00;;
5752;SDS011;2901;42.140;24.760;2022-08-21T12:11:25;11.07;;;9.95;;
5752;SDS011;2901;42.140;24.760;2022-08-21T12:16:33;15.90;;;10.35;;
5752;SDS011;2901;42.140;24.760;2022-08-21T12:19:04;12.00;;;10.95;;
5752;SDS011;2901;42.140;24.760;2022-08-21T12:22:08;12.98;;;10.30;;
5752;SDS011;2901;42.140;24.760;2022-08-21T12:27:30;16.23;;;11.57;;
5752;SDS011;2901;42.140;24.760;2022-08-21T12:30:22;13.57;;;10.55;;
5752;SDS011;2901;42.140;24.760;2022-08-21T12:33:00;13.20;;;11.13;;
5752;SDS011;2901;42.140;24.760;2022-08-21T12:35:46;11.50;;;10.40;;
5752;SDS011;2901;42.140;24.760;2022-08-21T12:38:22;11.73;;;10.07;;
5752;SDS011;2901;42.140;24.760;2022-08-21T12:40:54;11.57;;;9.68;;
5752;SDS011;2901;42.140;24.760;2022-08-21T12:43:33;9.85;;;8.98;;
5752;SDS011;2901;42.140;24.760;2022-08-21T12:46:02;13.70;;;9.25;;
5752;SDS011;2901;42.140;24.760;2022-08-21T12:51:17;12.52;;;10.15;;
5752;SDS011;2901;42.140;24.760;2022-08-21T12:53:49;11.98;;;9.77;;
5752;SDS011;2901;42.140;24.760;2022-08-21T12:56:17;10.45;;;9.40;;
5752;SDS011;2901;42.140;24.760;2022-08-21T12:58:49;12.32;;;9.27;;
5752;SDS011;2901;42.140;24.760;2022-08-21T13:01:21;11.48;;;10.35;;
5752;SDS011;2901;42.140;24.760;2022-08-21T13:03:49;10.85;;;8.75;;
5752;SDS011;2901;42.140;24.760;2022-08-21T13:06:19;8.98;;;7.93;;
5752;SDS011;2901;42.140;24.760;2022-08-21T13:08:47;14.77;;;9.73;;
5752;SDS011;2901;42.140;24.760;2022-08-21T13:11:16;13.35;;;9.57;;
5752;SDS011;2901;42.140;24.760;2022-08-21T13:13:48;9.75;;;8.73;;
5752;SDS011;2901;42.140;24.760;2022-08-21T13:16:17;10.15;;;9.23;;
5752;SDS011;2901;42.140;24.760;2022-08-21T13:19:02;12.50;;;9.52;;
5752;SDS011;2901;42.140;24.760;2022-08-21T13:21:34;9.50;;;8.60;;
5752;SDS011;2901;42.140;24.760;2022-08-21T13:24:08;9.90;;;8.77;;
5752;SDS011;2901;42.140;24.760;2022-08-21T13:26:35;8.23;;;7.40;;
5752;SDS011;2901;42.140;24.760;2022-08-21T13:29:06;9.00;;;6.80;;
5752;SDS011;2901;42.140;24.760;2022-08-21T13:31:36;7.82;;;7.15;;
5752;SDS011;2901;42.140;24.760;2022-08-21T13:34:03;6.55;;;5.97;;
5752;SDS011;2901;42.140;24.760;2022-08-21T13:36:31;6.55;;;6.05;;
5752;SDS011;2901;42.140;24.760;2022-08-21T13:39:03;6.95;;;6.32;;
5752;SDS011;2901;42.140;24.760;2022-08-21T13:41:34;8.05;;;6.55;;
5752;SDS011;2901;42.140;24.760;2022-08-21T13:46:31;7.40;;;6.35;;
5752;SDS011;2901;42.140;24.760;2022-08-21T13:49:00;8.30;;;6.30;;
5752;SDS011;2901;42.140;24.760;2022-08-21T13:51:27;7.45;;;6.78;;
5752;SDS011;2901;42.140;24.760;2022-08-21T13:53:54;11.63;;;7.47;;
5752;SDS011;2901;42.140;24.760;2022-08-21T13:56:30;7.07;;;6.30;;
5752;SDS011;2901;42.140;24.760;2022-08-21T13:58:59;6.25;;;5.82;;
5752;SDS011;2901;42.140;24.760;2022-08-21T14:04:20;7.53;;;6.72;;
5752;SDS011;2901;42.140;24.760;2022-08-21T14:06:49;7.47;;;6.50;;
5752;SDS011;2901;42.140;24.760;2022-08-21T14:09:26;8.43;;;6.50;;
5752;SDS011;2901;42.140;24.760;2022-08-21T14:11:56;8.38;;;7.07;;
5752;SDS011;2901;42.140;24.760;2022-08-21T14:14:26;8.15;;;6.68;;
5752;SDS011;2901;42.140;24.760;2022-08-21T14:17:00;7.25;;;6.22;;
5752;SDS011;2901;42.140;24.760;2022-08-21T14:19:38;6.95;;;6.32;;
5752;SDS011;2901;42.140;24.760;2022-08-21T14:25:05;7.28;;;6.55;;
5752;SDS011;2901;42.140;24.760;2022-08-21T14:27:33;6.88;;;6.25;;
5752;SDS011;2901;42.140;24.760;2022-08-21T14:30:09;9.32;;;6.28;;
5752;SDS011;2901;42.140;24.760;2022-08-21T14:32:37;5.93;;;5.15;;
5752;SDS011;2901;42.140;24.760;2022-08-21T14:35:05;6.07;;;5.50;;
5752;SDS011;2901;42.140;24.760;2022-08-21T14:37:32;5.70;;;5.30;;
5752;SDS011;2901;42.140;24.760;2022-08-21T14:39:58;5.90;;;5.50;;
5752;SDS011;2901;42.140;24.760;2022-08-21T14:42:23;6.30;;;5.85;;
5752;SDS011;2901;42.140;24.760;2022-08-21T14:44:49;5.63;;;5.30;;
5752;SDS011;2901;42.140;24.760;2022-08-21T14:47:15;5.45;;;4.80;;
5752;SDS011;2901;42.140;24.760;2022-08-21T14:49:41;6.43;;;5.65;;
5752;SDS011;2901;42.140;24.760;2022-08-21T14:52:08;5.90;;;4.82;;
5752;SDS011;2901;42.140;24.760;2022-08-21T14:54:33;5.80;;;5.40;;
5752;SDS011;2901;42.140;24.760;2022-08-21T14:57:00;6.32;;;5.82;;
5752;SDS011;2901;42.140;24.760;2022-08-21T14:59:28;5.60;;;5.22;;
5752;SDS011;2901;42.140;24.760;2022-08-21T15:01:54;5.90;;;5.50;;
5752;SDS011;2901;42.140;24.760;2022-08-21T15:04:21;6.57;;;6.03;;
5752;SDS011;2901;42.140;24.760;2022-08-21T15:06:46;9.43;;;6.28;;
5752;SDS011;2901;42.140;24.760;2022-08-21T15:09:11;6.47;;;5.90;;
5752;SDS011;2901;42.140;24.760;2022-08-21T15:11:37;7.00;;;6.38;;
5752;SDS011;2901;42.140;24.760;2022-08-21T15:14:03;6.57;;;6.13;;
5752;SDS011;2901;42.140;24.760;2022-08-21T15:16:32;7.82;;;7.13;;
5752;SDS011;2901;42.140;24.760;2022-08-21T15:18:59;10.77;;;7.82;;
5752;SDS011;2901;42.140;24.760;2022-08-21T15:21:24;8.18;;;7.72;;
5752;SDS011;2901;42.140;24.760;2022-08-21T15:23:50;7.03;;;6.63;;
5752;SDS011;2901;42.140;24.760;2022-08-21T15:26:15;9.55;;;7.57;;
5752;SDS011;2901;42.140;24.760;2022-08-21T15:28:40;7.10;;;6.50;;
5752;SDS011;2901;42.140;24.760;2022-08-21T15:31:07;9.38;;;6.50;;
5752;SDS011;2901;42.140;24.760;2022-08-21T15:33:32;6.93;;;6.30;;
5752;SDS011;2901;42.140;24.760;2022-08-21T15:35:58;6.35;;;5.85;;
5752;SDS011;2901;42.140;24.760;2022-08-21T15:38:23;5.45;;;4.90;;
5752;SDS011;2901;42.140;24.760;2022-08-21T15:40:49;4.97;;;4.68;;
5752;SDS011;2901;42.140;24.760;2022-08-21T15:43:21;6.38;;;5.78;;
5752;SDS011;2901;42.140;24.760;2022-08-21T15:45:52;5.68;;;5.25;;
5752;SDS011;2901;42.140;24.760;2022-08-21T15:48:18;7.95;;;6.13;;
5752;SDS011;2901;42.140;24.760;2022-08-21T15:50:44;5.43;;;4.93;;
5752;SDS011;2901;42.140;24.760;2022-08-21T15:53:10;7.30;;;6.28;;
5752;SDS011;2901;42.140;24.760;2022-08-21T15:55:35;6.90;;;6.18;;
5752;SDS011;2901;42.140;24.760;2022-08-21T15:58:01;5.88;;;5.38;;
5752;SDS011;2901;42.140;24.760;2022-08-21T16:00:29;8.48;;;6.18;;
5752;SDS011;2901;42.140;24.760;2022-08-21T16:02:58;6.65;;;6.25;;
5752;SDS011;2901;42.140;24.760;2022-08-21T16:05:25;6.57;;;6.15;;
5752;SDS011;2901;42.140;24.760;2022-08-21T16:07:51;7.43;;;5.50;;
5752;SDS011;2901;42.140;24.760;2022-08-21T16:10:18;6.55;;;5.97;;
5752;SDS011;2901;42.140;24.760;2022-08-21T16:12:47;6.68;;;4.88;;
5752;SDS011;2901;42.140;24.760;2022-08-21T16:15:16;6.30;;;4.88;;
5752;SDS011;2901;42.140;24.760;2022-08-21T16:17:43;4.60;;;4.22;;
5752;SDS011;2901;42.140;24.760;2022-08-21T16:20:13;6.55;;;5.90;;
5752;SDS011;2901;42.140;24.760;2022-08-21T16:22:42;8.50;;;5.43;;